Bookmark and Share
Track history (hours):
 

Grande Portogallo

Last reported at 2014-Apr-24 21:31 UTC. Time now 2014-Apr-24 22:31 UTC.
Position N 43°35' E 010°19'.

Length 176 m; draft 8.2 m.

Type: Cargo ship. MMSI: 247065500.

NotesDate/timePositionNaut miles runAvg speedWind from/ knotsBaromVisibWave heightAir tempDewpointWater temp
2014-Apr-24 21:31N 43°35' E 010°19'3 2.8
2014-Apr-24 20:33N 43°32' E 010°17'6 5.7
2014-Apr-24 19:33N 43°27' E 010°14'1717.3
2014-Apr-24 18:33N 43°11' E 010°20'1717.1
2014-Apr-24 17:32N 42°54' E 010°29'1816.9
2014-Apr-24 16:29N 42°40' E 010°43'16215.8
2014-Apr-24 06:16N 40°43' E 013°13'1014.7
2014-Apr-24 05:33N 40°39' E 013°25'1515.0
2014-Apr-24 04:33N 40°34' E 013°44'1515.1
2014-Apr-24 03:34N 40°30' E 014°03'1514.6
2014-Apr-24 02:33N 40°29' E 014°22'18 1.6
2014-Apr-23 15:24N 40°35' E 014°44'1416.7
2014-Apr-23 14:33N 40°21' E 014°44'12315.2
2014-Apr-23 06:28N 38°25' E 015°39'40812.7
2014-Apr-21 22:16N 37°22' E 024°10'1315.2
2014-Apr-21 21:23N 37°30' E 024°23'1315.1
2014-Apr-21 20:33N 37°42' E 024°30'4915.3
2014-Apr-21 17:20N 38°27' E 024°54'1515.1
2014-Apr-21 16:21N 38°40' E 025°03'6014.8
2014-Apr-21 12:18N 39°34' E 025°38'1115.0
2014-Apr-21 11:33N 39°44' E 025°44'1515.1
2014-Apr-21 10:32N 39°58' E 025°53'9914.1
2014-Apr-21 03:33N 40°47' E 027°45'  
2014-Apr-18 08:19N 37°55' E 025°49'1416.2
2014-Apr-18 07:26N 37°41' E 025°51'1415.6
2014-Apr-18 06:33N 37°28' E 025°55'1615.6
2014-Apr-18 05:33N 37°18' E 026°11'1515.3
2014-Apr-18 04:33N 37°09' E 026°26'1915.0
2014-Apr-18 03:16N 36°52' E 026°38'1215.2
2014-Apr-18 02:30N 36°41' E 026°43'30114.8
2014-Apr-17 06:14N 35°48' E 032°50'167 3.2
2014-Apr-15 02:34N 34°29' E 035°50'  

Dump ship's entire track history

sailing weather and tide predictions

Grande Portogallo — IBZW — position and weather